createdAt,value
2022-09-12T00:00:05.356Z,7.60
2022-09-12T00:02:33.093Z,7.97
2022-09-12T00:05:02.173Z,7.80
2022-09-12T00:07:29.835Z,8.23
2022-09-12T00:09:57.640Z,7.50
2022-09-12T00:12:25.389Z,9.00
2022-09-12T00:14:53.851Z,7.30
2022-09-12T00:17:21.633Z,8.13
2022-09-12T00:19:49.813Z,7.60
2022-09-12T00:22:18.978Z,7.70
2022-09-12T00:24:46.806Z,7.70
2022-09-12T00:27:14.457Z,7.70
2022-09-12T00:29:42.763Z,7.10
2022-09-12T00:32:10.542Z,7.73
2022-09-12T00:34:38.305Z,8.00
2022-09-12T00:37:06.091Z,7.70
2022-09-12T00:39:35.289Z,7.80
2022-09-12T00:42:03.094Z,8.20
2022-09-12T00:44:48.854Z,7.90
2022-09-12T00:47:24.945Z,8.50
2022-09-12T00:49:59.143Z,8.60
2022-09-12T00:52:33.606Z,8.90
2022-09-12T00:55:06.413Z,8.77
2022-09-12T00:57:38.761Z,8.37
2022-09-12T01:00:16.167Z,8.53
2022-09-12T01:02:46.400Z,8.20
2022-09-12T01:05:14.780Z,7.87
2022-09-12T01:07:44.581Z,8.17
2022-09-12T01:10:13.625Z,7.60
2022-09-12T01:12:44.229Z,8.17
2022-09-12T01:15:12.622Z,7.97
2022-09-12T01:18:02.841Z,7.97
2022-09-12T01:20:51.345Z,8.20
2022-09-12T01:24:00.514Z,8.33
2022-09-12T01:26:54.404Z,7.93
2022-09-12T01:29:42.265Z,7.67
2022-09-12T01:32:21.325Z,7.50
2022-09-12T01:35:00.072Z,8.33
2022-09-12T01:37:34.226Z,8.50
2022-09-12T01:40:06.526Z,8.00
2022-09-12T01:42:41.940Z,7.43
2022-09-12T01:45:13.286Z,8.10
2022-09-12T01:47:44.800Z,7.80
2022-09-12T01:50:17.455Z,9.30
2022-09-12T01:52:50.447Z,8.47
2022-09-12T01:55:22.488Z,8.43
2022-09-12T01:57:55.016Z,7.90
2022-09-12T02:00:23.067Z,9.03
2022-09-12T02:02:57.351Z,7.70
2022-09-12T02:05:30.667Z,8.63
2022-09-12T02:08:04.978Z,8.53
2022-09-12T02:10:35.557Z,9.70
2022-09-12T02:13:08.723Z,10.43
2022-09-12T02:15:41.179Z,8.70
2022-09-12T02:18:15.121Z,9.17
2022-09-12T02:20:48.995Z,9.30
2022-09-12T02:23:21.793Z,8.90
2022-09-12T02:25:53.156Z,8.97
2022-09-12T02:28:24.937Z,9.43
2022-09-12T02:31:02.479Z,8.90
2022-09-12T02:33:39.750Z,10.13
2022-09-12T02:36:18.360Z,10.47
2022-09-12T02:38:47.908Z,10.70
2022-09-12T02:41:18.975Z,10.70
2022-09-12T02:43:47.567Z,11.00
2022-09-12T02:46:19.876Z,10.60
2022-09-12T02:48:48.938Z,10.90
2022-09-12T02:51:21.501Z,10.10
2022-09-12T02:53:50.831Z,9.43
2022-09-12T02:56:22.440Z,11.10
2022-09-12T02:58:50.724Z,10.10
2022-09-12T03:01:31.066Z,10.37
2022-09-12T03:04:20.471Z,10.37
2022-09-12T03:06:58.243Z,10.37
2022-09-12T03:09:38.188Z,11.23
2022-09-12T03:12:19.628Z,10.10
2022-09-12T03:15:17.007Z,11.20
2022-09-12T03:17:57.579Z,11.20
2022-09-12T03:20:42.703Z,9.30
2022-09-12T03:23:19.965Z,10.03
2022-09-12T03:25:53.965Z,10.27
2022-09-12T03:28:23.907Z,10.60
2022-09-12T03:30:54.484Z,9.97
2022-09-12T03:33:23.913Z,9.27
2022-09-12T03:35:54.277Z,9.60
2022-09-12T03:38:21.980Z,10.17
2022-09-12T03:40:54.556Z,9.80
2022-09-12T03:43:22.623Z,10.50
2022-09-12T03:45:52.228Z,11.63
2022-09-12T03:48:19.956Z,11.73
2022-09-12T03:50:47.571Z,11.57
2022-09-12T03:53:17.521Z,11.47
2022-09-12T03:55:45.854Z,11.50
2022-09-12T03:58:13.522Z,11.47
2022-09-12T04:00:42.780Z,10.27
2022-09-12T04:03:10.448Z,10.97
2022-09-12T04:05:38.124Z,11.00
2022-09-12T04:08:06.041Z,9.93
2022-09-12T04:10:35.366Z,9.73
2022-09-12T04:13:03.419Z,10.80
2022-09-12T04:15:31.136Z,9.90
2022-09-12T04:18:02.423Z,10.30
2022-09-12T04:20:33.296Z,11.23
2022-09-12T04:23:01.065Z,10.17
2022-09-12T04:25:29.383Z,10.20
2022-09-12T04:27:58.471Z,11.07
2022-09-12T04:30:26.280Z,10.90
2022-09-12T04:32:54.030Z,10.80
2022-09-12T04:35:22.189Z,11.17
2022-09-12T04:37:49.840Z,10.93
2022-09-12T04:40:18.990Z,10.00
2022-09-12T04:42:48.238Z,10.23
2022-09-12T04:45:17.433Z,10.03
2022-09-12T04:47:46.675Z,10.10
2022-09-12T04:50:14.917Z,8.60
2022-09-12T04:52:42.569Z,9.30
2022-09-12T04:55:10.793Z,9.33
2022-09-12T04:57:39.807Z,8.67
2022-09-12T05:00:09.341Z,9.80
2022-09-12T05:02:38.709Z,9.67
2022-09-12T05:05:07.360Z,9.73
2022-09-12T05:07:35.421Z,9.80
2022-09-12T05:10:04.643Z,10.20
2022-09-12T05:12:32.862Z,10.97
2022-09-12T05:15:00.674Z,9.63
2022-09-12T05:17:30.150Z,9.20
2022-09-12T05:19:59.680Z,10.23
2022-09-12T05:22:27.358Z,8.80
2022-09-12T05:24:55.261Z,10.93
2022-09-12T05:27:23.935Z,10.00
2022-09-12T05:29:52.302Z,9.80
2022-09-12T05:32:20.990Z,9.97
2022-09-12T05:34:49.741Z,10.03
2022-09-12T05:37:18.949Z,9.90
2022-09-12T05:39:46.685Z,9.53
2022-09-12T05:42:14.753Z,9.30
2022-09-12T05:44:43.633Z,9.10
2022-09-12T05:47:13.228Z,9.90
2022-09-12T05:49:41.599Z,10.03
2022-09-12T05:52:09.264Z,9.63
2022-09-12T05:54:38.643Z,10.77
2022-09-12T05:57:06.438Z,9.93
2022-09-12T05:59:34.157Z,9.83
2022-09-12T06:02:01.838Z,11.10
2022-09-12T06:04:32.256Z,10.00
2022-09-12T06:07:00.889Z,10.10
2022-09-12T06:09:28.636Z,10.90
2022-09-12T06:11:57.816Z,10.67
2022-09-12T06:14:25.486Z,10.53
2022-09-12T06:16:53.497Z,10.57
2022-09-12T06:19:23.153Z,11.00
2022-09-12T06:21:51.615Z,10.67
2022-09-12T06:24:20.579Z,11.80
2022-09-12T06:26:48.407Z,11.60
2022-09-12T06:29:19.265Z,12.60
2022-09-12T06:31:47.146Z,11.47
2022-09-12T06:34:17.080Z,12.57
2022-09-12T06:36:46.286Z,11.43
2022-09-12T06:39:16.467Z,11.00
2022-09-12T06:41:45.142Z,12.30
2022-09-12T06:44:16.043Z,11.23
2022-09-12T06:46:45.908Z,12.60
2022-09-12T06:49:14.189Z,12.87
2022-09-12T06:51:43.182Z,12.83
2022-09-12T06:54:14.235Z,11.53
2022-09-12T06:56:42.210Z,12.67
2022-09-12T06:59:10.058Z,13.43
2022-09-12T07:01:37.938Z,12.57
2022-09-12T07:04:07.213Z,12.27
2022-09-12T07:06:38.403Z,12.93
2022-09-12T07:09:08.338Z,12.27
2022-09-12T07:11:38.026Z,11.70
2022-09-12T07:14:08.170Z,12.43
2022-09-12T07:16:37.077Z,12.83
2022-09-12T07:19:07.342Z,11.97
2022-09-12T07:21:40.067Z,11.97
2022-09-12T07:24:09.865Z,12.20
2022-09-12T07:26:38.329Z,11.43
2022-09-12T07:31:54.886Z,9.77
2022-09-12T07:34:22.891Z,9.67
2022-09-12T07:36:52.230Z,9.57
2022-09-12T07:39:20.013Z,9.50
2022-09-12T07:41:48.291Z,9.13
2022-09-12T07:44:15.953Z,9.00
2022-09-12T07:46:43.675Z,8.20
2022-09-12T07:49:13.569Z,7.37
2022-09-12T07:51:41.557Z,8.20
2022-09-12T07:54:11.873Z,8.20
2022-09-12T07:56:40.902Z,8.47
2022-09-12T07:59:08.792Z,8.23
2022-09-12T08:01:36.542Z,7.33
2022-09-12T08:04:05.100Z,6.20
2022-09-12T08:06:36.014Z,6.50
2022-09-12T08:09:05.255Z,6.93
2022-09-12T08:11:35.296Z,9.90
2022-09-12T08:14:03.147Z,9.60
2022-09-12T08:16:32.718Z,8.57
2022-09-12T08:19:02.256Z,9.63
2022-09-12T08:21:32.329Z,8.83
2022-09-12T08:24:01.802Z,8.67
2022-09-12T08:26:30.209Z,9.20
2022-09-12T08:28:59.647Z,8.87
2022-09-12T08:31:28.950Z,8.90
2022-09-12T08:33:57.941Z,7.70
2022-09-12T08:36:27.898Z,7.53
2022-09-12T08:38:59.917Z,8.47
2022-09-12T08:41:31.729Z,8.20
2022-09-12T08:44:14.842Z,7.90
2022-09-12T08:46:51.733Z,7.47
2022-09-12T08:49:28.670Z,6.63
2022-09-12T08:51:59.130Z,7.07
2022-09-12T08:54:29.491Z,6.87
2022-09-12T08:57:02.873Z,8.07
2022-09-12T08:59:36.626Z,6.70
2022-09-12T09:02:14.563Z,7.53
2022-09-12T09:04:52.686Z,7.10
2022-09-12T09:07:42.134Z,7.10
2022-09-12T09:10:20.585Z,4.47
2022-09-12T09:13:01.849Z,4.83
2022-09-12T09:15:48.633Z,5.60
2022-09-12T09:18:22.659Z,5.27
2022-09-12T09:20:55.541Z,3.93
2022-09-12T09:23:33.045Z,4.47
2022-09-12T09:26:07.197Z,3.90
2022-09-12T09:28:43.031Z,3.03
2022-09-12T09:31:16.360Z,2.80
2022-09-12T09:33:45.363Z,2.60
2022-09-12T09:36:22.370Z,2.70
2022-09-12T09:38:51.432Z,2.80
2022-09-12T09:41:38.853Z,2.90
2022-09-12T09:46:36.972Z,2.53
2022-09-12T09:49:06.939Z,2.70
2022-09-12T09:51:37.202Z,2.87
2022-09-12T09:54:12.177Z,2.40
2022-09-12T09:56:42.406Z,2.70
2022-09-12T09:59:12.762Z,2.33
2022-09-12T10:01:47.893Z,2.30
2022-09-12T10:04:22.356Z,2.80
2022-09-12T10:06:53.137Z,3.00
2022-09-12T10:09:24.206Z,2.90
2022-09-12T10:11:53.013Z,2.43
2022-09-12T10:14:39.205Z,3.40
2022-09-12T10:17:33.955Z,2.33
2022-09-12T10:20:21.439Z,2.40
2022-09-12T10:22:50.547Z,2.60
2022-09-12T10:25:21.109Z,2.43
2022-09-12T10:27:55.524Z,2.20
2022-09-12T10:30:25.072Z,2.50
2022-09-12T10:32:54.235Z,2.20
2022-09-12T10:35:24.096Z,2.20
2022-09-12T10:37:55.297Z,2.50
2022-09-12T10:40:25.876Z,2.00
2022-09-12T10:42:55.813Z,2.20
2022-09-12T10:45:29.076Z,2.23
2022-09-12T10:48:03.102Z,1.93
2022-09-12T10:50:39.954Z,2.60
2022-09-12T10:53:20.933Z,2.17
2022-09-12T10:56:03.831Z,2.43
2022-09-12T10:58:55.238Z,2.03
2022-09-12T11:01:38.039Z,2.20
2022-09-12T11:04:23.172Z,2.07
2022-09-12T11:07:03.648Z,1.97
2022-09-12T11:09:38.981Z,1.90
2022-09-12T11:12:16.213Z,2.20
2022-09-12T11:14:58.347Z,1.80
2022-09-12T11:17:35.883Z,1.90
2022-09-12T11:20:36.202Z,2.23
2022-09-12T11:23:32.394Z,2.00
2022-09-12T11:26:09.220Z,1.93
2022-09-12T11:28:50.159Z,1.90
2022-09-12T11:31:47.299Z,1.37
2022-09-12T11:34:18.755Z,1.37
2022-09-12T11:37:05.495Z,1.73
2022-09-12T11:39:41.001Z,1.70
2022-09-12T11:42:21.435Z,1.47
2022-09-12T11:44:58.717Z,1.60
2022-09-12T11:47:30.962Z,1.80
2022-09-12T11:50:01.183Z,1.40
2022-09-12T11:52:36.918Z,1.37
2022-09-12T11:55:11.070Z,1.40
2022-09-12T11:57:42.742Z,1.63
2022-09-12T12:00:18.747Z,1.53
2022-09-12T12:02:56.404Z,1.60
2022-09-12T12:05:28.387Z,1.47
2022-09-12T12:07:57.887Z,1.33
2022-09-12T12:10:34.689Z,1.50
2022-09-12T12:13:10.680Z,1.00
2022-09-12T12:15:41.329Z,1.10
2022-09-12T12:18:18.666Z,1.10
2022-09-12T12:20:46.630Z,1.37
2022-09-12T12:23:25.049Z,1.50
2022-09-12T12:25:55.716Z,1.50
2022-09-12T12:28:59.248Z,1.60
2022-09-12T12:31:27.028Z,1.43
2022-09-12T12:34:24.042Z,1.80
2022-09-12T12:36:51.761Z,1.70
2022-09-12T12:40:05.987Z,1.83
2022-09-12T12:43:07.581Z,1.60
2022-09-12T12:46:06.749Z,1.47
2022-09-12T12:48:44.357Z,1.20
2022-09-12T12:52:01.177Z,1.50
2022-09-12T12:54:51.845Z,1.80
2022-09-12T12:57:25.692Z,1.40
2022-09-12T12:59:58.099Z,1.40
2022-09-12T13:02:31.791Z,1.73
2022-09-12T13:05:03.385Z,1.27
2022-09-12T13:07:37.939Z,1.50
2022-09-12T13:10:10.323Z,1.37
2022-09-12T13:12:46.531Z,1.50
2022-09-12T13:15:50.104Z,1.40
2022-09-12T13:18:24.999Z,1.40
2022-09-12T13:20:56.641Z,1.37
2022-09-12T13:23:25.967Z,1.20
2022-09-12T13:25:54.683Z,1.60
2022-09-12T13:28:22.492Z,1.50
2022-09-12T13:31:02.954Z,1.50
2022-09-12T13:33:38.362Z,1.30
2022-09-12T13:36:31.878Z,1.07
2022-09-12T13:39:14.390Z,1.53
2022-09-12T13:42:08.637Z,1.13
2022-09-12T13:44:43.756Z,1.20
2022-09-12T13:47:16.673Z,1.20
2022-09-12T13:49:46.519Z,1.27
2022-09-12T13:52:20.023Z,1.23
2022-09-12T13:54:50.962Z,1.47
2022-09-12T13:57:30.546Z,1.30
2022-09-12T13:59:58.985Z,1.20
2022-09-12T14:02:31.338Z,0.93
2022-09-12T14:05:10.138Z,1.10
2022-09-12T14:07:54.938Z,1.50
2022-09-12T14:10:28.810Z,1.17
2022-09-12T14:12:58.446Z,1.30
2022-09-12T14:15:29.647Z,1.37
2022-09-12T14:18:01.284Z,1.13
2022-09-12T14:20:32.534Z,1.30
2022-09-12T14:23:03.361Z,1.20
2022-09-12T14:25:41.326Z,1.37
2022-09-12T14:28:14.596Z,1.30
2022-09-12T14:30:42.470Z,1.33
2022-09-12T14:33:22.075Z,1.27
2022-09-12T14:35:51.570Z,1.03
2022-09-12T14:38:25.472Z,1.20
2022-09-12T14:41:00.752Z,1.50
2022-09-12T14:43:30.917Z,1.47
2022-09-12T14:46:00.556Z,1.47
2022-09-12T14:48:32.671Z,1.40
2022-09-12T14:51:01.328Z,1.60
2022-09-12T14:53:34.067Z,1.60
2022-09-12T14:56:09.290Z,1.70
2022-09-12T14:58:37.974Z,1.00
2022-09-12T15:01:25.498Z,1.37
2022-09-12T15:03:57.016Z,1.30
2022-09-12T15:06:29.127Z,1.47
2022-09-12T15:08:59.301Z,1.67
2022-09-12T15:11:27.468Z,1.70
2022-09-12T15:13:55.266Z,1.50
2022-09-12T15:16:23.204Z,3.50
2022-09-12T15:18:50.972Z,1.97
2022-09-12T15:21:21.589Z,1.80
2022-09-12T15:23:50.876Z,1.83
2022-09-12T15:26:20.740Z,1.20
2022-09-12T15:28:48.420Z,1.40
2022-09-12T15:31:27.752Z,2.00
2022-09-12T15:33:57.098Z,1.60
2022-09-12T15:36:26.991Z,1.40
2022-09-12T15:38:54.743Z,1.40
2022-09-12T15:41:24.051Z,1.80
2022-09-12T15:43:52.472Z,1.30
2022-09-12T15:46:20.486Z,1.70
2022-09-12T15:48:48.189Z,1.40
2022-09-12T15:51:19.128Z,1.80
2022-09-12T15:53:49.987Z,1.80
2022-09-12T15:56:19.030Z,1.80
2022-09-12T15:58:58.225Z,2.00
2022-09-12T16:01:27.636Z,1.97
2022-09-12T16:03:55.377Z,2.00
2022-09-12T16:06:23.423Z,2.10
2022-09-12T16:08:52.473Z,2.20
2022-09-12T16:11:22.088Z,1.87
2022-09-12T16:13:50.033Z,1.80
2022-09-12T16:16:17.795Z,2.07
2022-09-12T16:18:45.568Z,1.90
2022-09-12T16:21:15.498Z,1.93
2022-09-12T16:23:43.962Z,1.70
2022-09-12T16:26:13.109Z,2.00
2022-09-12T16:28:41.031Z,1.80
2022-09-12T16:31:11.615Z,2.00
2022-09-12T16:33:40.302Z,2.20
2022-09-12T16:36:10.273Z,2.13
2022-09-12T16:38:41.893Z,1.63
2022-09-12T16:41:09.590Z,2.20
2022-09-12T16:43:38.987Z,1.60
2022-09-12T16:46:08.517Z,1.80
2022-09-12T16:48:37.863Z,2.03
2022-09-12T16:51:07.287Z,2.03
2022-09-12T16:53:36.972Z,1.70
2022-09-12T16:56:05.435Z,1.80
2022-09-12T16:58:35.633Z,2.30
2022-09-12T17:01:09.800Z,2.30
2022-09-12T17:03:37.597Z,2.13
2022-09-12T17:06:07.661Z,2.20
2022-09-12T17:08:38.053Z,1.87
2022-09-12T17:11:08.038Z,2.20
2022-09-12T17:14:00.220Z,1.60
2022-09-12T17:16:25.497Z,2.23
2022-09-12T17:18:54.006Z,2.50
2022-09-12T17:21:22.454Z,2.33
2022-09-12T17:23:50.281Z,3.30
2022-09-12T17:26:18.317Z,3.03
2022-09-12T17:28:46.022Z,3.33
2022-09-12T17:31:15.813Z,2.80
2022-09-12T17:33:45.203Z,2.90
2022-09-12T17:36:15.265Z,3.93
2022-09-12T17:38:44.423Z,3.00
2022-09-12T17:41:15.959Z,2.27
2022-09-12T17:43:43.879Z,2.30
2022-09-12T17:46:11.689Z,2.30
2022-09-12T17:48:39.551Z,2.20
2022-09-12T17:51:13.576Z,2.23
2022-09-12T17:53:41.590Z,2.17
2022-09-12T17:56:10.486Z,2.40
2022-09-12T17:58:38.700Z,2.80
2022-09-12T18:01:26.266Z,2.27
2022-09-12T18:03:55.571Z,2.50
2022-09-12T18:06:24.994Z,2.40
2022-09-12T18:08:52.816Z,2.20
2022-09-12T18:11:20.487Z,3.00
2022-09-12T18:13:48.218Z,3.00
2022-09-12T18:16:17.492Z,2.80
2022-09-12T18:18:45.145Z,2.90
2022-09-12T18:21:13.554Z,3.00
2022-09-12T18:23:42.640Z,3.10
2022-09-12T18:26:13.103Z,2.97
2022-09-12T18:28:43.910Z,3.70
2022-09-12T18:31:14.216Z,3.97
2022-09-12T18:33:42.056Z,3.00
2022-09-12T18:36:11.920Z,3.17
2022-09-12T18:38:39.668Z,3.53
2022-09-12T18:41:10.464Z,3.30
2022-09-12T18:43:38.701Z,2.70
2022-09-12T18:46:07.525Z,3.20
2022-09-12T18:48:37.008Z,3.70
2022-09-12T18:51:06.946Z,3.17
2022-09-12T18:53:35.291Z,2.60
2022-09-12T18:56:05.226Z,2.97
2022-09-12T18:58:34.258Z,3.40
2022-09-12T19:01:09.669Z,3.17
2022-09-12T19:03:37.690Z,2.80
2022-09-12T19:06:09.843Z,3.40
2022-09-12T19:08:37.746Z,3.30
2022-09-12T19:11:06.066Z,3.53
2022-09-12T19:13:36.937Z,3.30
2022-09-12T19:16:10.104Z,3.50
2022-09-12T19:18:38.683Z,3.77
2022-09-12T19:21:07.706Z,3.47
2022-09-12T19:23:36.761Z,3.20
2022-09-12T19:26:08.551Z,3.60
2022-09-12T19:28:38.064Z,3.57
2022-09-12T19:31:06.443Z,3.17
2022-09-12T19:33:34.624Z,3.33
2022-09-12T19:36:04.329Z,3.53
2022-09-12T19:38:32.095Z,3.27
2022-09-12T19:41:01.355Z,3.23
2022-09-12T19:43:30.588Z,3.30
2022-09-12T19:46:00.016Z,3.87
2022-09-12T19:48:27.960Z,3.10
2022-09-12T19:50:59.883Z,3.13
2022-09-12T19:53:28.274Z,2.73
2022-09-12T19:56:00.086Z,3.63
2022-09-12T19:58:27.990Z,3.70
2022-09-12T20:00:55.905Z,3.77
2022-09-12T20:03:25.147Z,3.80
2022-09-12T20:05:52.857Z,3.60
2022-09-12T20:08:20.624Z,3.73
2022-09-12T20:10:48.333Z,3.37
2022-09-12T20:13:15.989Z,3.70
2022-09-12T20:15:43.677Z,3.87
2022-09-12T20:18:11.382Z,4.10
2022-09-12T20:20:40.379Z,4.10
2022-09-12T20:23:07.973Z,3.67
2022-09-12T20:25:35.603Z,4.00
2022-09-12T20:28:03.560Z,4.03
2022-09-12T20:30:31.270Z,4.20
2022-09-12T20:32:58.932Z,3.60
2022-09-12T20:35:26.562Z,3.57
2022-09-12T20:37:55.589Z,3.80
2022-09-12T20:40:23.790Z,3.70
2022-09-12T20:42:51.456Z,4.30
2022-09-12T20:45:19.560Z,4.20
2022-09-12T20:47:47.314Z,4.07
2022-09-12T20:50:15.229Z,4.00
2022-09-12T20:52:42.953Z,3.90
2022-09-12T20:55:12.736Z,3.90
2022-09-12T20:57:40.377Z,4.00
2022-09-12T21:00:10.659Z,4.00
2022-09-12T21:02:38.404Z,3.77
2022-09-12T21:05:07.319Z,4.10
2022-09-12T21:07:35.128Z,4.03
2022-09-12T21:10:02.741Z,3.20
2022-09-12T21:12:31.751Z,3.30
2022-09-12T21:15:00.328Z,3.40
2022-09-12T21:17:27.947Z,3.43
2022-09-12T21:19:55.605Z,3.50
2022-09-12T21:22:23.265Z,3.20
2022-09-12T21:24:50.897Z,3.37
2022-09-12T21:27:18.589Z,3.63
2022-09-12T21:29:47.613Z,3.07
2022-09-12T21:32:15.268Z,3.10
2022-09-12T21:34:42.990Z,3.00
2022-09-12T21:37:10.633Z,3.03
2022-09-12T21:39:38.303Z,3.00
2022-09-12T21:42:06.057Z,3.33
2022-09-12T21:44:33.673Z,3.17
2022-09-12T21:47:02.725Z,3.13
2022-09-12T21:49:30.346Z,3.00
2022-09-12T21:51:57.994Z,2.90
2022-09-12T21:54:25.653Z,2.90
2022-09-12T21:56:53.258Z,2.63
2022-09-12T21:59:21.132Z,3.00
2022-09-12T22:01:48.854Z,2.57
2022-09-12T22:04:17.932Z,2.83
2022-09-12T22:06:45.575Z,2.63
2022-09-12T22:09:14.094Z,2.47
2022-09-12T22:11:41.787Z,2.90
2022-09-12T22:14:09.484Z,2.63
2022-09-12T22:16:37.166Z,3.33
2022-09-12T22:19:04.781Z,2.90
2022-09-12T22:21:33.960Z,2.80
2022-09-12T22:24:19.213Z,3.00
2022-09-12T22:26:47.219Z,2.70
2022-09-12T22:29:14.904Z,2.60
2022-09-12T22:31:42.984Z,2.60
2022-09-12T22:34:10.847Z,2.23
2022-09-12T22:36:40.152Z,2.83
2022-09-12T22:39:08.014Z,2.90
2022-09-12T22:41:35.705Z,2.47
2022-09-12T22:44:03.619Z,2.40
2022-09-12T22:46:32.169Z,2.40
2022-09-12T22:49:00.173Z,2.43
2022-09-12T22:51:28.051Z,2.80
2022-09-12T22:53:57.030Z,2.33
2022-09-12T22:56:24.833Z,2.50
2022-09-12T22:58:52.799Z,2.70
2022-09-12T23:01:20.688Z,2.77
2022-09-12T23:03:48.682Z,2.60
2022-09-12T23:06:17.105Z,2.80
2022-09-12T23:08:44.833Z,2.80
2022-09-12T23:11:15.356Z,2.80
2022-09-12T23:13:44.858Z,2.23
2022-09-12T23:16:17.369Z,2.40
2022-09-12T23:18:46.107Z,2.53
2022-09-12T23:21:14.976Z,2.40
2022-09-12T23:23:42.690Z,2.50
2022-09-12T23:26:14.655Z,2.60
2022-09-12T23:28:47.897Z,2.70
2022-09-12T23:31:16.914Z,2.40
2022-09-12T23:33:44.811Z,2.50
2022-09-12T23:36:14.438Z,2.40
2022-09-12T23:38:43.678Z,2.50
2022-09-12T23:41:13.812Z,2.50
2022-09-12T23:43:42.948Z,2.90
2022-09-12T23:46:10.684Z,2.40
2022-09-12T23:48:39.937Z,2.10
2022-09-12T23:51:08.004Z,2.00
2022-09-12T23:53:36.621Z,2.20
2022-09-12T23:56:05.285Z,2.20
2022-09-12T23:58:34.526Z,2.43
